PWSweather.com
Personal Weather Stations
Station Observations
BZA01
Southern Palatinate, Bad BergzabernDE 76887

Southern PalatinateBad BergzabernDE 76887

Lat: 49.096, Lon: 8

Elevation: 640

Station Type: Davis VP2+

Latest ConditionsUpdated 9:12:02 AM GMT+01:01 Thursday, Dec 12, 2019
Currently Today's Max Today's Min Today's Average
Temperature 38.5°F3.6°C 38.5°F3.6°C 37.6°F3.1°C 37.9°F3.3°C
Dew Point 37.2°F2.9°C 37.2°F2.9°C 36.0°F2.2°C 36.6°F2.6°C
Winds 4.0 mph 6.4 kmh 4.9 mph -7.9 kmh - - 3.0 mph 4.8 kmh
Wind Gusts 4.9 mph7.9 kmh 6.0 mph9.7 kmh - -
Humidity 95% 95% 94% 95%
Pressure 29.70 in1005.8 mb 29.77 in1008.1 mb 29.68 in1005.1 mb -
Precipitation - 0.02 in0.5 mm - -
Hour Temp Dew Point Humidity Winds Wind Gusts Pressure Precip Precip Rate Daily Precip Total
09:12 AM 38.5°F3.6°C 37.2°F2.9°C 95% 4.0 mph 6.4 kmh 4.9 mph7.9 kmh 29.70 in1005.8 mb - 0.00 in0.0 mm 0.02 in0.5 mm
09:07 AM 38.5°F3.6°C 37.2°F2.9°C 95% 2.9 mph 4.7 kmh 2.0 mph3.2 kmh 29.70 in1005.8 mb - 0.00 in0.0 mm 0.02 in0.5 mm
09:02 AM 38.5°F3.6°C 37.2°F2.9°C 95% 4.0 mph 6.4 kmh 2.0 mph3.2 kmh 29.70 in1005.8 mb - 0.00 in0.0 mm 0.02 in0.5 mm
08:57 AM 38.5°F3.6°C 37.2°F2.9°C 95% 4.0 mph 6.4 kmh 4.9 mph7.9 kmh 29.70 in1005.8 mb - 0.00 in0.0 mm 0.02 in0.5 mm
08:52 AM 38.3°F3.5°C 37.0°F2.8°C 95% 4.0 mph 6.4 kmh 2.9 mph4.7 kmh 29.70 in1005.8 mb - 0.00 in0.0 mm 0.02 in0.5 mm
08:47 AM 38.3°F3.5°C 37.0°F2.8°C 95% 4.0 mph 6.4 kmh 4.0 mph6.4 kmh 29.70 in1005.8 mb - 0.00 in0.0 mm 0.02 in0.5 mm
08:42 AM 38.3°F3.5°C 37.0°F2.8°C 95% 2.9 mph 4.7 kmh 2.9 mph4.7 kmh 29.70 in1005.8 mb - 0.00 in0.0 mm 0.02 in0.5 mm
08:37 AM 38.1°F3.4°C 36.9°F2.7°C 95% 2.9 mph 4.7 kmh 4.0 mph6.4 kmh 29.70 in1005.8 mb - 0.00 in0.0 mm 0.02 in0.5 mm
08:32 AM 38.1°F3.4°C 36.9°F2.7°C 95% 2.9 mph 4.7 kmh 0.9 mph1.4 kmh 29.70 in1005.8 mb - 0.00 in0.0 mm 0.02 in0.5 mm
08:27 AM 38.1°F3.4°C 36.9°F2.7°C 95% 2.9 mph 4.7 kmh 2.0 mph3.2 kmh 29.70 in1005.8 mb - 0.00 in0.0 mm 0.02 in0.5 mm
08:22 AM 38.1°F3.4°C 36.9°F2.7°C 95% 2.9 mph 4.7 kmh 4.0 mph6.4 kmh 29.70 in1005.8 mb - 0.00 in0.0 mm 0.02 in0.5 mm
08:17 AM 38.3°F3.5°C 37.0°F2.8°C 95% 2.9 mph 4.7 kmh 2.0 mph3.2 kmh 29.70 in1005.8 mb - 0.00 in0.0 mm 0.02 in0.5 mm
08:12 AM 38.1°F3.4°C 36.9°F2.7°C 95% 4.0 mph 6.4 kmh 2.0 mph3.2 kmh 29.69 in1005.4 mb - 0.00 in0.0 mm 0.02 in0.5 mm
08:07 AM 38.1°F3.4°C 36.9°F2.7°C 95% 4.0 mph 6.4 kmh 4.0 mph6.4 kmh 29.69 in1005.4 mb - 0.00 in0.0 mm 0.02 in0.5 mm
08:02 AM 38.1°F3.4°C 36.9°F2.7°C 95% 4.0 mph 6.4 kmh 4.9 mph7.9 kmh 29.69 in1005.4 mb - 0.00 in0.0 mm 0.02 in0.5 mm
07:57 AM 38.1°F3.4°C 36.9°F2.7°C 95% 4.0 mph 6.4 kmh 4.0 mph6.4 kmh 29.69 in1005.4 mb - 0.00 in0.0 mm 0.02 in0.5 mm
07:52 AM 38.1°F3.4°C 36.9°F2.7°C 95% 2.9 mph 4.7 kmh 2.0 mph3.2 kmh 29.69 in1005.4 mb - 0.00 in0.0 mm 0.02 in0.5 mm
07:47 AM 38.1°F3.4°C 36.9°F2.7°C 95% 2.9 mph 4.7 kmh 2.9 mph4.7 kmh 29.69 in1005.4 mb - 0.00 in0.0 mm 0.02 in0.5 mm
07:42 AM 38.1°F3.4°C 36.9°F2.7°C 95% 4.0 mph 6.4 kmh 2.0 mph3.2 kmh 29.69 in1005.4 mb - 0.00 in0.0 mm 0.02 in0.5 mm
07:37 AM 38.1°F3.4°C 36.9°F2.7°C 95% 4.0 mph 6.4 kmh 2.9 mph4.7 kmh 29.69 in1005.4 mb - 0.00 in0.0 mm 0.02 in0.5 mm
07:32 AM 38.1°F3.4°C 36.9°F2.7°C 95% 4.0 mph 6.4 kmh 2.0 mph3.2 kmh 29.69 in1005.4 mb - 0.00 in0.0 mm 0.02 in0.5 mm
07:27 AM 38.1°F3.4°C 36.9°F2.7°C 95% 4.0 mph 6.4 kmh 4.9 mph7.9 kmh 29.69 in1005.4 mb - 0.00 in0.0 mm 0.02 in0.5 mm
07:22 AM 38.1°F3.4°C 36.9°F2.7°C 95% 4.0 mph 6.4 kmh 4.0 mph6.4 kmh 29.69 in1005.4 mb - 0.00 in0.0 mm 0.02 in0.5 mm
07:17 AM 38.1°F3.4°C 36.9°F2.7°C 95% 4.0 mph 6.4 kmh 4.0 mph6.4 kmh 29.69 in1005.4 mb - 0.00 in0.0 mm 0.02 in0.5 mm
07:12 AM 38.1°F3.4°C 36.9°F2.7°C 95% 4.0 mph 6.4 kmh 2.0 mph3.2 kmh 29.69 in1005.4 mb - 0.00 in0.0 mm 0.02 in0.5 mm
07:07 AM 38.1°F3.4°C 36.9°F2.7°C 95% 4.0 mph 6.4 kmh 4.0 mph6.4 kmh 29.69 in1005.4 mb - 0.00 in0.0 mm 0.02 in0.5 mm
07:02 AM 38.1°F3.4°C 36.9°F2.7°C 95% 4.0 mph 6.4 kmh 2.9 mph4.7 kmh 29.69 in1005.4 mb - 0.00 in0.0 mm 0.02 in0.5 mm
06:57 AM 38.1°F3.4°C 36.9°F2.7°C 95% 2.9 mph 4.7 kmh 4.9 mph7.9 kmh 29.69 in1005.4 mb - 0.00 in0.0 mm 0.02 in0.5 mm
06:52 AM 38.1°F3.4°C 36.9°F2.7°C 95% 4.0 mph 6.4 kmh 2.9 mph4.7 kmh 29.69 in1005.4 mb - 0.00 in0.0 mm 0.02 in0.5 mm
06:47 AM 38.1°F3.4°C 36.9°F2.7°C 95% 4.0 mph 6.4 kmh 2.9 mph4.7 kmh 29.69 in1005.4 mb - 0.00 in0.0 mm 0.02 in0.5 mm
06:42 AM 38.1°F3.4°C 36.9°F2.7°C 95% 2.9 mph 4.7 kmh 2.9 mph4.7 kmh 29.69 in1005.4 mb - 0.00 in0.0 mm 0.02 in0.5 mm
06:37 AM 38.1°F3.4°C 36.9°F2.7°C 95% 2.9 mph 4.7 kmh 4.9 mph7.9 kmh 29.68 in1005.1 mb - 0.00 in0.0 mm 0.02 in0.5 mm
06:32 AM 38.1°F3.4°C 36.9°F2.7°C 95% 2.9 mph 4.7 kmh 2.9 mph4.7 kmh 29.69 in1005.4 mb - 0.00 in0.0 mm 0.02 in0.5 mm
06:27 AM 37.9°F3.3°C 36.7°F2.6°C 95% 2.9 mph 4.7 kmh 4.0 mph6.4 kmh 29.69 in1005.4 mb - 0.00 in0.0 mm 0.01 in0.3 mm
06:22 AM 38.1°F3.4°C 36.9°F2.7°C 95% 2.9 mph 4.7 kmh 4.0 mph6.4 kmh 29.68 in1005.1 mb - 0.00 in0.0 mm 0.01 in0.3 mm
06:17 AM 38.1°F3.4°C 36.9°F2.7°C 95% 2.9 mph 4.7 kmh 2.9 mph4.7 kmh 29.68 in1005.1 mb - 0.00 in0.0 mm 0.01 in0.3 mm
06:12 AM 38.1°F3.4°C 36.9°F2.7°C 95% 2.9 mph 4.7 kmh 4.0 mph6.4 kmh 29.69 in1005.4 mb - 0.00 in0.0 mm 0.01 in0.3 mm
06:07 AM 38.1°F3.4°C 36.9°F2.7°C 95% 2.9 mph 4.7 kmh 0.9 mph1.4 kmh 29.69 in1005.4 mb - 0.00 in0.0 mm 0.01 in0.3 mm
06:02 AM 37.9°F3.3°C 36.7°F2.6°C 95% 2.9 mph 4.7 kmh 4.0 mph6.4 kmh 29.69 in1005.4 mb - 0.00 in0.0 mm 0.01 in0.3 mm
05:57 AM 37.9°F3.3°C 36.7°F2.6°C 95% 2.9 mph 4.7 kmh 2.0 mph3.2 kmh 29.69 in1005.4 mb - 0.00 in0.0 mm 0.01 in0.3 mm
05:52 AM 37.9°F3.3°C 36.7°F2.6°C 95% 2.9 mph 4.7 kmh 4.0 mph6.4 kmh 29.69 in1005.4 mb - 0.00 in0.0 mm 0.01 in0.3 mm
05:47 AM 37.9°F3.3°C 36.7°F2.6°C 95% 2.9 mph 4.7 kmh 2.9 mph4.7 kmh 29.69 in1005.4 mb - 0.00 in0.0 mm 0.01 in0.3 mm
05:42 AM 37.9°F3.3°C 36.7°F2.6°C 95% 2.9 mph 4.7 kmh 2.0 mph3.2 kmh 29.69 in1005.4 mb - 0.00 in0.0 mm 0.01 in0.3 mm
05:37 AM 37.9°F3.3°C 36.7°F2.6°C 95% 2.9 mph 4.7 kmh 6.0 mph9.7 kmh 29.69 in1005.4 mb - 0.00 in0.0 mm 0.01 in0.3 mm
05:32 AM 37.9°F3.3°C 36.7°F2.6°C 95% 2.9 mph 4.7 kmh 4.9 mph7.9 kmh 29.69 in1005.4 mb - 0.00 in0.0 mm 0.01 in0.3 mm
05:27 AM 37.9°F3.3°C 36.7°F2.6°C 95% 2.9 mph 4.7 kmh 2.0 mph3.2 kmh 29.69 in1005.4 mb - 0.00 in0.0 mm 0.01 in0.3 mm
05:22 AM 37.9°F3.3°C 36.7°F2.6°C 95% 2.9 mph 4.7 kmh 2.9 mph4.7 kmh 29.69 in1005.4 mb - 0.00 in0.0 mm 0.01 in0.3 mm
05:17 AM 37.9°F3.3°C 36.7°F2.6°C 95% 2.9 mph 4.7 kmh 2.9 mph4.7 kmh 29.69 in1005.4 mb - 0.00 in0.0 mm 0.01 in0.3 mm
05:12 AM 37.9°F3.3°C 36.7°F2.6°C 95% 2.0 mph 3.2 kmh 2.9 mph4.7 kmh 29.69 in1005.4 mb - 0.00 in0.0 mm 0.01 in0.3 mm
05:07 AM 37.9°F3.3°C 36.7°F2.6°C 95% 2.0 mph 3.2 kmh 0.9 mph1.4 kmh 29.69 in1005.4 mb - 0.00 in0.0 mm 0.01 in0.3 mm
05:02 AM 37.9°F3.3°C 36.7°F2.6°C 95% 2.0 mph 3.2 kmh 2.0 mph3.2 kmh 29.69 in1005.4 mb - 0.00 in0.0 mm 0.00 in0.0 mm
04:57 AM 37.9°F3.3°C 36.7°F2.6°C 95% 2.9 mph 4.7 kmh 2.0 mph3.2 kmh 29.69 in1005.4 mb - 0.00 in0.0 mm 0.00 in0.0 mm
04:52 AM 37.9°F3.3°C 36.7°F2.6°C 95% 2.0 mph 3.2 kmh 0.9 mph1.4 kmh 29.69 in1005.4 mb - 0.00 in0.0 mm 0.00 in0.0 mm
04:47 AM 37.8°F3.2°C 36.5°F2.5°C 95% 2.0 mph 3.2 kmh 4.0 mph6.4 kmh 29.69 in1005.4 mb - 0.00 in0.0 mm 0.00 in0.0 mm
04:42 AM 37.8°F3.2°C 36.5°F2.5°C 95% 2.0 mph 3.2 kmh 0.9 mph1.4 kmh 29.69 in1005.4 mb - 0.00 in0.0 mm 0.00 in0.0 mm
04:37 AM 37.8°F3.2°C 36.5°F2.5°C 95% 2.0 mph 3.2 kmh 2.9 mph4.7 kmh 29.70 in1005.8 mb - 0.00 in0.0 mm 0.00 in0.0 mm
04:32 AM 37.8°F3.2°C 36.5°F2.5°C 95% 2.0 mph 3.2 kmh 2.0 mph3.2 kmh 29.70 in1005.8 mb - 0.00 in0.0 mm 0.00 in0.0 mm
04:27 AM 37.8°F3.2°C 36.1°F2.3°C 94% 2.0 mph 3.2 kmh 2.0 mph3.2 kmh 29.70 in1005.8 mb - 0.00 in0.0 mm 0.00 in0.0 mm
04:22 AM 37.6°F3.1°C 36.0°F2.2°C 94% 2.0 mph 3.2 kmh 2.0 mph3.2 kmh 29.70 in1005.8 mb - 0.00 in0.0 mm 0.00 in0.0 mm
04:17 AM 37.6°F3.1°C 36.0°F2.2°C 94% 2.0 mph 3.2 kmh 2.0 mph3.2 kmh 29.70 in1005.8 mb - 0.00 in0.0 mm 0.00 in0.0 mm
04:12 AM 37.6°F3.1°C 36.0°F2.2°C 94% 2.0 mph 3.2 kmh 2.9 mph4.7 kmh 29.70 in1005.8 mb - 0.00 in0.0 mm 0.00 in0.0 mm
04:07 AM 37.6°F3.1°C 36.0°F2.2°C 94% 2.0 mph 3.2 kmh 0.9 mph1.4 kmh 29.70 in1005.8 mb - 0.00 in0.0 mm 0.00 in0.0 mm
04:02 AM 37.6°F3.1°C 36.0°F2.2°C 94% 2.0 mph 3.2 kmh 2.9 mph4.7 kmh 29.70 in1005.8 mb - 0.00 in0.0 mm 0.00 in0.0 mm
03:57 AM 37.6°F3.1°C 36.0°F2.2°C 94% 2.0 mph 3.2 kmh 2.9 mph4.7 kmh 29.70 in1005.8 mb - 0.00 in0.0 mm 0.00 in0.0 mm
03:52 AM 37.6°F3.1°C 36.0°F2.2°C 94% 2.0 mph 3.2 kmh 2.0 mph3.2 kmh 29.70 in1005.8 mb - 0.00 in0.0 mm 0.00 in0.0 mm
03:47 AM 37.6°F3.1°C 36.0°F2.2°C 94% 2.0 mph 3.2 kmh 2.0 mph3.2 kmh 29.71 in1006.1 mb - 0.00 in0.0 mm 0.00 in0.0 mm
03:42 AM 37.6°F3.1°C 36.0°F2.2°C 94% 2.0 mph 3.2 kmh 2.0 mph3.2 kmh 29.70 in1005.8 mb - 0.00 in0.0 mm 0.00 in0.0 mm
03:37 AM 37.6°F3.1°C 36.0°F2.2°C 94% 2.0 mph 3.2 kmh 2.0 mph3.2 kmh 29.70 in1005.8 mb - 0.00 in0.0 mm 0.00 in0.0 mm
03:32 AM 37.8°F3.2°C 36.1°F2.3°C 94% 2.9 mph 4.7 kmh 2.0 mph3.2 kmh 29.71 in1006.1 mb - 0.00 in0.0 mm 0.00 in0.0 mm
03:27 AM 37.8°F3.2°C 36.5°F2.5°C 95% 2.9 mph 4.7 kmh 2.9 mph4.7 kmh 29.71 in1006.1 mb - 0.00 in0.0 mm 0.00 in0.0 mm
03:22 AM 37.8°F3.2°C 36.5°F2.5°C 95% 2.0 mph 3.2 kmh 2.9 mph4.7 kmh 29.71 in1006.1 mb - 0.00 in0.0 mm 0.00 in0.0 mm
03:17 AM 37.8°F3.2°C 36.1°F2.3°C 94% 2.9 mph 4.7 kmh 2.0 mph3.2 kmh 29.72 in1006.4 mb - 0.00 in0.0 mm 0.00 in0.0 mm
03:12 AM 37.8°F3.2°C 36.1°F2.3°C 94% 2.0 mph 3.2 kmh 2.0 mph3.2 kmh 29.72 in1006.4 mb - 0.00 in0.0 mm 0.00 in0.0 mm
03:07 AM 37.8°F3.2°C 36.1°F2.3°C 94% 2.0 mph 3.2 kmh 4.0 mph6.4 kmh 29.72 in1006.4 mb - 0.00 in0.0 mm 0.00 in0.0 mm
03:02 AM 37.8°F3.2°C 36.1°F2.3°C 94% 2.0 mph 3.2 kmh 2.0 mph3.2 kmh 29.72 in1006.4 mb - 0.00 in0.0 mm 0.00 in0.0 mm
02:57 AM 37.8°F3.2°C 36.1°F2.3°C 94% 2.0 mph 3.2 kmh 2.0 mph3.2 kmh 29.72 in1006.4 mb - 0.00 in0.0 mm 0.00 in0.0 mm
02:52 AM 37.6°F3.1°C 36.0°F2.2°C 94% 2.0 mph 3.2 kmh 2.9 mph4.7 kmh 29.73 in1006.8 mb - 0.00 in0.0 mm 0.00 in0.0 mm
02:47 AM 37.6°F3.1°C 36.0°F2.2°C 94% 2.9 mph 4.7 kmh 2.9 mph4.7 kmh 29.73 in1006.8 mb - 0.00 in0.0 mm 0.00 in0.0 mm
02:42 AM 37.6°F3.1°C 36.0°F2.2°C 94% 2.9 mph 4.7 kmh 2.9 mph4.7 kmh 29.73 in1006.8 mb - 0.00 in0.0 mm 0.00 in0.0 mm
02:37 AM 37.6°F3.1°C 36.0°F2.2°C 94% 2.0 mph 3.2 kmh 2.0 mph3.2 kmh 29.72 in1006.4 mb - 0.00 in0.0 mm 0.00 in0.0 mm
02:32 AM 37.8°F3.2°C 36.1°F2.3°C 94% 2.0 mph 3.2 kmh 2.0 mph3.2 kmh 29.73 in1006.8 mb - 0.00 in0.0 mm 0.00 in0.0 mm
02:27 AM 37.9°F3.3°C 36.3°F2.4°C 94% 2.0 mph 3.2 kmh 2.9 mph4.7 kmh 29.73 in1006.8 mb - 0.00 in0.0 mm 0.00 in0.0 mm
02:22 AM 37.9°F3.3°C 36.3°F2.4°C 94% 0.9 mph 1.4 kmh 2.0 mph3.2 kmh 29.73 in1006.8 mb - 0.00 in0.0 mm 0.00 in0.0 mm
02:17 AM 37.9°F3.3°C 36.3°F2.4°C 94% 2.0 mph 3.2 kmh -- 29.73 in1006.8 mb - 0.00 in0.0 mm 0.00 in0.0 mm
02:12 AM 38.1°F3.4°C 36.5°F2.5°C 94% 2.0 mph 3.2 kmh 0.9 mph1.4 kmh 29.73 in1006.8 mb - 0.00 in0.0 mm 0.00 in0.0 mm
02:07 AM 38.1°F3.4°C 36.9°F2.7°C 95% 2.0 mph 3.2 kmh 2.0 mph3.2 kmh 29.73 in1006.8 mb - 0.00 in0.0 mm 0.00 in0.0 mm
02:02 AM 38.1°F3.4°C 36.9°F2.7°C 95% 2.0 mph 3.2 kmh 2.0 mph3.2 kmh 29.73 in1006.8 mb - 0.00 in0.0 mm 0.00 in0.0 mm
01:57 AM 38.1°F3.4°C 36.9°F2.7°C 95% 2.0 mph 3.2 kmh 2.0 mph3.2 kmh 29.74 in1007.1 mb - 0.00 in0.0 mm 0.00 in0.0 mm
01:52 AM 38.1°F3.4°C 36.9°F2.7°C 95% 2.0 mph 3.2 kmh 2.9 mph4.7 kmh 29.74 in1007.1 mb - 0.00 in0.0 mm 0.00 in0.0 mm
01:47 AM 37.9°F3.3°C 36.7°F2.6°C 95% 2.9 mph 4.7 kmh 2.0 mph3.2 kmh 29.74 in1007.1 mb - 0.00 in0.0 mm 0.00 in0.0 mm
01:42 AM 37.9°F3.3°C 36.7°F2.6°C 95% 2.9 mph 4.7 kmh 2.9 mph4.7 kmh 29.74 in1007.1 mb - 0.00 in0.0 mm 0.00 in0.0 mm
01:37 AM 37.9°F3.3°C 36.7°F2.6°C 95% 4.0 mph 6.4 kmh 2.0 mph3.2 kmh 29.74 in1007.1 mb - 0.00 in0.0 mm 0.00 in0.0 mm
01:32 AM 37.9°F3.3°C 36.7°F2.6°C 95% 4.0 mph 6.4 kmh 4.9 mph7.9 kmh 29.74 in1007.1 mb - 0.00 in0.0 mm 0.00 in0.0 mm
01:27 AM 37.9°F3.3°C 36.7°F2.6°C 95% 4.0 mph 6.4 kmh 4.0 mph6.4 kmh 29.75 in1007.5 mb - 0.00 in0.0 mm 0.00 in0.0 mm
01:22 AM 37.9°F3.3°C 36.7°F2.6°C 95% 4.0 mph 6.4 kmh 4.0 mph6.4 kmh 29.75 in1007.5 mb - 0.00 in0.0 mm 0.00 in0.0 mm
01:17 AM 37.9°F3.3°C 36.7°F2.6°C 95% 4.9 mph 7.9 kmh 4.9 mph7.9 kmh 29.75 in1007.5 mb - 0.00 in0.0 mm 0.00 in0.0 mm
01:12 AM 37.9°F3.3°C 36.7°F2.6°C 95% 4.0 mph 6.4 kmh 6.0 mph9.7 kmh 29.75 in1007.5 mb - 0.00 in0.0 mm 0.00 in0.0 mm
01:07 AM 37.9°F3.3°C 36.7°F2.6°C 95% 4.0 mph 6.4 kmh 4.0 mph6.4 kmh 29.75 in1007.5 mb - 0.00 in0.0 mm 0.00 in0.0 mm
01:02 AM 37.9°F3.3°C 36.7°F2.6°C 95% 4.0 mph 6.4 kmh 4.9 mph7.9 kmh 29.75 in1007.5 mb - 0.00 in0.0 mm 0.00 in0.0 mm
12:57 AM 37.9°F3.3°C 36.7°F2.6°C 95% 4.0 mph 6.4 kmh 2.0 mph3.2 kmh 29.75 in1007.5 mb - 0.00 in0.0 mm 0.00 in0.0 mm
12:52 AM 37.9°F3.3°C 36.7°F2.6°C 95% 4.0 mph 6.4 kmh 4.0 mph6.4 kmh 29.75 in1007.5 mb - 0.00 in0.0 mm 0.00 in0.0 mm
12:47 AM 37.9°F3.3°C 36.7°F2.6°C 95% 4.0 mph 6.4 kmh 4.0 mph6.4 kmh 29.75 in1007.5 mb - 0.00 in0.0 mm 0.00 in0.0 mm
12:42 AM 37.9°F3.3°C 36.7°F2.6°C 95% 4.0 mph 6.4 kmh 2.9 mph4.7 kmh 29.75 in1007.5 mb - 0.00 in0.0 mm 0.00 in0.0 mm
12:37 AM 37.9°F3.3°C 36.7°F2.6°C 95% 4.0 mph 6.4 kmh 2.9 mph4.7 kmh 29.75 in1007.5 mb - 0.00 in0.0 mm 0.00 in0.0 mm
12:32 AM 37.9°F3.3°C 36.7°F2.6°C 95% 4.0 mph 6.4 kmh 2.9 mph4.7 kmh 29.75 in1007.5 mb - 0.00 in0.0 mm 0.00 in0.0 mm
12:27 AM 37.9°F3.3°C 36.7°F2.6°C 95% 4.0 mph 6.4 kmh 2.9 mph4.7 kmh 29.76 in1007.8 mb - 0.00 in0.0 mm 0.00 in0.0 mm
12:22 AM 37.9°F3.3°C 36.3°F2.4°C 94% 4.0 mph 6.4 kmh 4.0 mph6.4 kmh 29.76 in1007.8 mb - 0.00 in0.0 mm 0.00 in0.0 mm
12:17 AM 37.8°F3.2°C 36.1°F2.3°C 94% 4.0 mph 6.4 kmh 4.0 mph6.4 kmh 29.76 in1007.8 mb - 0.00 in0.0 mm 0.00 in0.0 mm
12:12 AM 37.8°F3.2°C 36.5°F2.5°C 95% 4.0 mph 6.4 kmh 4.0 mph6.4 kmh 29.76 in1007.8 mb - 0.00 in0.0 mm 0.00 in0.0 mm
12:07 AM 37.8°F3.2°C 36.5°F2.5°C 95% 2.9 mph 4.7 kmh 4.0 mph6.4 kmh 29.76 in1007.8 mb - 0.00 in0.0 mm 0.00 in0.0 mm
12:02 AM 37.8°F3.2°C 36.5°F2.5°C 95% 2.9 mph 4.7 kmh 2.9 mph4.7 kmh 29.77 in1008.1 mb - 0.00 in0.0 mm 0.42 in10.7 mm